createdAt,value
2019-03-13T00:01:09.545Z,91.23
2019-03-13T00:03:35.337Z,91.14
2019-03-13T00:06:01.148Z,91.36
2019-03-13T00:08:26.940Z,91.03
2019-03-13T00:10:52.734Z,91.51
2019-03-13T00:13:18.518Z,91.62
2019-03-13T00:15:44.317Z,91.42
2019-03-13T00:18:10.101Z,91.20
2019-03-13T00:20:35.903Z,91.32
2019-03-13T00:23:01.698Z,91.53
2019-03-13T00:25:27.524Z,91.63
2019-03-13T00:27:53.405Z,92.02
2019-03-13T00:30:19.226Z,92.12
2019-03-13T00:32:44.999Z,92.13
2019-03-13T00:35:10.783Z,92.45
2019-03-13T00:37:36.577Z,92.54
2019-03-13T00:40:08.230Z,92.53
2019-03-13T00:42:34.031Z,92.34
2019-03-13T00:44:59.815Z,92.31
2019-03-13T00:47:25.611Z,92.18
2019-03-13T00:49:51.393Z,92.34
2019-03-13T00:52:17.196Z,92.01
2019-03-13T00:54:43.006Z,91.86
2019-03-13T00:57:08.819Z,91.98
2019-03-13T00:59:34.595Z,91.66
2019-03-13T01:02:02.288Z,91.77
2019-03-13T01:04:29.979Z,91.65
2019-03-13T01:06:57.696Z,91.71
2019-03-13T01:09:23.502Z,91.92
2019-03-13T01:11:49.286Z,91.87
2019-03-13T01:14:15.075Z,91.95
2019-03-13T01:16:40.859Z,91.87
2019-03-13T01:19:06.646Z,91.77
2019-03-13T01:21:32.468Z,91.54
2019-03-13T01:23:58.245Z,91.59
2019-03-13T01:26:24.025Z,91.66
2019-03-13T01:28:49.815Z,91.60
2019-03-13T01:31:26.252Z,91.74
2019-03-13T01:33:53.945Z,91.63
2019-03-13T01:36:19.729Z,91.65
2019-03-13T01:38:45.521Z,91.73
2019-03-13T01:41:11.308Z,91.79
2019-03-13T01:43:37.100Z,91.74
2019-03-13T01:46:02.979Z,91.53
2019-03-13T01:48:28.769Z,91.32
2019-03-13T01:50:54.544Z,91.06
2019-03-13T01:53:20.348Z,90.95
2019-03-13T01:55:46.127Z,90.74
2019-03-13T01:58:11.936Z,90.68
2019-03-13T02:00:37.711Z,90.77
2019-03-13T02:03:03.523Z,90.89
2019-03-13T02:05:29.297Z,91.09
2019-03-13T02:07:55.110Z,91.08
2019-03-13T02:10:20.896Z,91.38
2019-03-13T02:12:46.672Z,91.19
2019-03-13T02:15:17.674Z,91.17
2019-03-13T02:17:43.458Z,91.20
2019-03-13T02:20:09.545Z,90.77
2019-03-13T02:22:35.330Z,90.79
2019-03-13T02:25:01.218Z,90.50
2019-03-13T02:27:26.997Z,90.37
2019-03-13T02:29:52.790Z,90.36
2019-03-13T02:32:18.720Z,90.19
2019-03-13T02:34:44.589Z,90.11
2019-03-13T02:37:10.459Z,90.13
2019-03-13T02:39:36.248Z,89.99
2019-03-13T02:42:02.035Z,89.77
2019-03-13T02:44:27.825Z,89.96
2019-03-13T02:46:53.607Z,90.18
2019-03-13T02:49:19.403Z,90.10
2019-03-13T02:51:45.177Z,90.08
2019-03-13T02:54:10.982Z,90.10
2019-03-13T02:56:36.864Z,90.28
2019-03-13T02:59:02.671Z,90.41
2019-03-13T03:01:30.357Z,90.14
2019-03-13T03:03:58.051Z,90.07
2019-03-13T03:06:23.976Z,89.92
2019-03-13T03:08:49.740Z,89.73
2019-03-13T03:11:15.534Z,89.69
2019-03-13T03:13:41.312Z,89.62
2019-03-13T03:16:07.105Z,89.35
2019-03-13T03:18:32.888Z,89.15
2019-03-13T03:20:58.693Z,89.30
2019-03-13T03:23:24.472Z,89.20
2019-03-13T03:25:50.261Z,89.07
2019-03-13T03:28:16.039Z,88.91
2019-03-13T03:30:41.862Z,88.83
2019-03-13T03:33:07.617Z,88.70
2019-03-13T03:35:33.418Z,88.75
2019-03-13T03:37:59.200Z,88.88
2019-03-13T03:40:24.991Z,88.92
2019-03-13T03:42:50.770Z,88.99
2019-03-13T03:45:17.002Z,88.81
2019-03-13T03:47:42.760Z,88.60
2019-03-13T03:50:10.968Z,88.50
2019-03-13T03:52:36.765Z,88.56
2019-03-13T03:55:05.036Z,88.36
2019-03-13T03:57:30.838Z,88.12
2019-03-13T03:59:56.610Z,88.13
2019-03-13T04:02:22.398Z,88.29
2019-03-13T04:04:48.174Z,88.29
2019-03-13T04:07:13.993Z,88.16
2019-03-13T04:09:39.777Z,88.16
2019-03-13T04:12:05.585Z,88.21
2019-03-13T04:14:31.363Z,88.19
2019-03-13T04:16:57.151Z,88.11
2019-03-13T04:19:22.923Z,87.95
2019-03-13T04:21:48.707Z,87.77
2019-03-13T04:24:14.489Z,87.68
2019-03-13T04:26:42.171Z,87.60
2019-03-13T04:29:07.953Z,87.68
2019-03-13T04:31:33.772Z,87.64
2019-03-13T04:33:59.523Z,87.64
2019-03-13T04:36:25.315Z,87.56
2019-03-13T04:38:51.099Z,87.23
2019-03-13T04:41:16.885Z,87.31
2019-03-13T04:43:42.666Z,88.16
2019-03-13T04:46:08.464Z,88.78
2019-03-13T04:48:34.254Z,89.05
2019-03-13T04:51:00.032Z,88.87
2019-03-13T04:53:25.833Z,88.91
2019-03-13T04:55:52.657Z,88.82
2019-03-13T04:58:18.724Z,88.61
2019-03-13T05:00:44.497Z,88.51
2019-03-13T05:03:10.297Z,88.18
2019-03-13T05:05:40.393Z,88.10
2019-03-13T05:08:06.238Z,87.75
2019-03-13T05:10:31.982Z,87.70
2019-03-13T05:12:57.922Z,87.79
2019-03-13T05:15:23.757Z,88.11
2019-03-13T05:17:49.563Z,88.02
2019-03-13T05:20:15.335Z,88.05
2019-03-13T05:22:41.141Z,88.16
2019-03-13T05:25:06.922Z,88.13
2019-03-13T05:27:32.717Z,87.91
2019-03-13T05:29:58.497Z,87.90
2019-03-13T05:32:24.281Z,88.34
2019-03-13T05:34:50.067Z,88.71
2019-03-13T05:37:15.851Z,89.17
2019-03-13T05:39:41.642Z,89.34
2019-03-13T05:42:07.423Z,89.64
2019-03-13T05:44:33.219Z,89.64
2019-03-13T05:46:58.998Z,89.70
2019-03-13T05:49:24.805Z,89.28
2019-03-13T05:51:50.584Z,89.08
2019-03-13T05:54:16.377Z,88.93
2019-03-13T05:56:42.167Z,88.85
2019-03-13T05:59:07.951Z,89.14
2019-03-13T06:01:33.732Z,89.17
2019-03-13T06:03:59.525Z,88.97
2019-03-13T06:06:25.322Z,88.98
2019-03-13T06:08:51.120Z,89.05
2019-03-13T06:11:16.902Z,89.06
2019-03-13T06:13:42.701Z,89.20
2019-03-13T06:16:08.480Z,89.36
2019-03-13T06:18:34.288Z,89.68
2019-03-13T06:21:00.070Z,89.90
2019-03-13T06:23:25.886Z,90.17
2019-03-13T06:25:51.666Z,89.98
2019-03-13T06:28:17.456Z,90.17
2019-03-13T06:30:43.238Z,90.27
2019-03-13T06:33:09.028Z,90.34
2019-03-13T06:35:34.818Z,90.44
2019-03-13T06:38:00.609Z,90.41
2019-03-13T06:40:26.397Z,90.57
2019-03-13T06:42:52.175Z,90.14
2019-03-13T06:45:17.983Z,89.94
2019-03-13T06:47:43.756Z,90.00
2019-03-13T06:50:18.360Z,89.92
2019-03-13T06:52:44.146Z,89.49
2019-03-13T06:55:10.146Z,89.46
2019-03-13T06:57:35.933Z,89.81
2019-03-13T07:00:23.081Z,90.46
2019-03-13T07:03:08.878Z,90.65
2019-03-13T07:05:42.381Z,90.79
2019-03-13T07:08:18.904Z,90.58
2019-03-13T07:10:58.239Z,90.45
2019-03-13T07:13:37.663Z,90.44
2019-03-13T07:16:14.376Z,90.66
2019-03-13T07:18:42.060Z,90.49
2019-03-13T07:21:12.564Z,90.40
2019-03-13T07:23:49.274Z,90.12
2019-03-13T07:26:16.973Z,89.97
2019-03-13T07:28:47.425Z,89.62
2019-03-13T07:31:24.283Z,89.51
2019-03-13T07:34:00.835Z,89.51
2019-03-13T07:36:28.553Z,89.22
2019-03-13T07:38:58.760Z,89.47
2019-03-13T07:41:26.466Z,89.11
2019-03-13T07:43:54.162Z,88.92
2019-03-13T07:46:21.861Z,88.66
2019-03-13T07:49:04.358Z,88.85
2019-03-13T07:51:32.053Z,88.59
2019-03-13T07:54:08.384Z,88.81
2019-03-13T07:56:36.083Z,88.41
2019-03-13T07:59:06.279Z,87.82
2019-03-13T08:01:39.607Z,87.91
2019-03-13T08:04:07.298Z,87.81
2019-03-13T08:06:43.920Z,87.95
2019-03-13T08:09:28.326Z,87.51
2019-03-13T08:12:04.922Z,87.60
2019-03-13T08:14:38.481Z,87.61
2019-03-13T08:17:06.178Z,87.40
2019-03-13T08:19:42.452Z,87.03
2019-03-13T08:22:15.756Z,86.76
2019-03-13T08:24:49.293Z,86.34
2019-03-13T08:27:17.001Z,86.38
2019-03-13T08:29:44.690Z,85.70
2019-03-13T08:32:21.194Z,85.55
2019-03-13T08:35:06.978Z,85.21
2019-03-13T08:37:37.456Z,84.84
2019-03-13T08:40:18.321Z,84.92
2019-03-13T08:42:46.021Z,84.48
2019-03-13T08:45:20.090Z,84.67
2019-03-13T08:48:05.729Z,84.19
2019-03-13T08:50:42.004Z,83.55
2019-03-13T08:53:15.265Z,83.71
2019-03-13T08:55:59.317Z,83.27
2019-03-13T08:58:39.093Z,83.37
2019-03-13T09:01:23.614Z,83.10
2019-03-13T09:03:57.112Z,82.76
2019-03-13T09:06:30.673Z,82.79
2019-03-13T09:09:14.796Z,82.66
2019-03-13T09:11:57.497Z,82.26
2019-03-13T09:14:27.848Z,81.86
2019-03-13T09:17:07.660Z,81.71
2019-03-13T09:19:38.273Z,81.79
2019-03-13T09:22:05.963Z,81.21
2019-03-13T09:24:50.434Z,81.52
2019-03-13T09:27:18.128Z,81.22
2019-03-13T09:30:02.749Z,81.01
2019-03-13T09:32:47.093Z,80.62
2019-03-13T09:35:14.793Z,81.51
2019-03-13T09:37:48.278Z,83.13
2019-03-13T09:40:27.959Z,84.89
2019-03-13T09:42:58.457Z,85.71
2019-03-13T09:45:38.089Z,86.55
2019-03-13T09:48:08.301Z,86.98
2019-03-13T09:50:51.127Z,87.61
2019-03-13T09:53:18.833Z,87.63
2019-03-13T09:56:01.664Z,87.85
2019-03-13T09:58:29.458Z,87.81
2019-03-13T10:00:59.657Z,87.83
2019-03-13T10:03:30.136Z,88.55
2019-03-13T10:06:00.588Z,89.06
2019-03-13T10:08:40.388Z,89.70
2019-03-13T10:11:08.072Z,89.86
2019-03-13T10:13:50.867Z,89.98
2019-03-13T10:16:24.500Z,89.81
2019-03-13T10:19:11.293Z,89.87
2019-03-13T10:21:41.777Z,89.63
2019-03-13T10:24:26.232Z,89.43
2019-03-13T10:27:10.684Z,89.42
2019-03-13T10:29:38.383Z,89.32
2019-03-13T10:32:22.651Z,89.17
2019-03-13T10:34:50.349Z,89.50
2019-03-13T10:37:20.586Z,89.31
2019-03-13T10:39:57.168Z,89.29
2019-03-13T10:42:24.964Z,89.31
2019-03-13T10:44:58.219Z,88.78
2019-03-13T10:47:25.910Z,88.40
2019-03-13T10:49:53.608Z,88.66
2019-03-13T10:52:23.854Z,88.42
2019-03-13T10:54:54.091Z,88.67
2019-03-13T10:57:24.363Z,88.75
2019-03-13T10:59:55.061Z,89.08
2019-03-13T11:02:31.823Z,89.77
2019-03-13T11:04:59.534Z,90.30
2019-03-13T11:07:28.653Z,91.11
2019-03-13T11:09:56.821Z,91.06
2019-03-13T11:12:24.496Z,91.24
2019-03-13T11:14:57.820Z,91.39
2019-03-13T11:17:28.057Z,91.53
2019-03-13T11:20:12.228Z,91.36
2019-03-13T11:22:42.719Z,91.34
2019-03-13T11:25:13.434Z,91.58
2019-03-13T11:27:41.119Z,91.35
2019-03-13T11:30:12.616Z,91.39
2019-03-13T11:32:56.912Z,91.19
2019-03-13T11:35:42.820Z,91.38
2019-03-13T11:38:19.154Z,91.02
2019-03-13T11:40:52.720Z,90.48
2019-03-13T11:43:20.404Z,90.27
2019-03-13T11:46:02.967Z,90.82
2019-03-13T11:48:33.466Z,91.67
2019-03-13T11:51:03.692Z,92.14
2019-03-13T11:53:31.379Z,92.30
2019-03-13T11:56:07.844Z,92.73
2019-03-13T11:58:35.538Z,92.81
2019-03-13T12:01:17.424Z,92.86
2019-03-13T12:03:47.448Z,92.97
2019-03-13T12:06:31.989Z,92.80
2019-03-13T12:08:59.686Z,92.71
2019-03-13T12:11:33.326Z,92.38
2019-03-13T12:14:01.011Z,92.49
2019-03-13T12:16:46.638Z,92.50
2019-03-13T12:19:17.094Z,92.59
2019-03-13T12:21:47.357Z,92.21
2019-03-13T12:24:27.095Z,92.00
2019-03-13T12:27:12.921Z,91.84
2019-03-13T12:29:51.534Z,92.24
2019-03-13T12:32:19.232Z,92.78
2019-03-13T12:34:46.922Z,93.34
2019-03-13T12:37:14.625Z,93.23
2019-03-13T12:39:44.846Z,93.14
2019-03-13T12:42:21.379Z,93.16
2019-03-13T12:45:05.802Z,93.24
2019-03-13T12:47:50.193Z,93.30
2019-03-13T12:50:17.884Z,93.31
2019-03-13T12:53:00.699Z,93.51
2019-03-13T12:55:40.250Z,93.64
2019-03-13T12:58:10.505Z,93.61
2019-03-13T13:00:47.256Z,93.26
2019-03-13T13:03:14.949Z,93.17
2019-03-13T13:05:42.638Z,93.09
2019-03-13T13:08:16.081Z,92.85
2019-03-13T13:10:49.572Z,92.65
2019-03-13T13:13:17.269Z,92.51
2019-03-13T13:15:44.957Z,92.44
2019-03-13T13:18:15.448Z,92.38
2019-03-13T13:20:41.230Z,92.53
2019-03-13T13:23:07.035Z,92.55
2019-03-13T13:25:33.742Z,92.82
2019-03-13T13:27:59.538Z,92.92
2019-03-13T13:30:25.317Z,92.83
2019-03-13T13:32:51.110Z,93.21
2019-03-13T13:35:16.889Z,93.09
2019-03-13T13:37:42.693Z,93.24
2019-03-13T13:40:15.296Z,93.28
2019-03-13T13:42:41.088Z,93.42
2019-03-13T13:45:25.600Z,93.40
2019-03-13T13:47:51.392Z,93.36
2019-03-13T13:50:17.168Z,93.87
2019-03-13T13:52:42.968Z,93.90
2019-03-13T13:55:08.740Z,93.42
2019-03-13T13:57:34.564Z,93.38
2019-03-13T14:00:00.499Z,93.40
2019-03-13T14:02:26.327Z,93.44
2019-03-13T14:04:52.115Z,94.08
2019-03-13T14:07:17.905Z,94.00
2019-03-13T14:09:43.702Z,94.24
2019-03-13T14:12:09.485Z,94.30
2019-03-13T14:14:35.276Z,94.00
2019-03-13T14:17:01.064Z,94.32
2019-03-13T14:19:26.862Z,93.74
2019-03-13T14:21:52.645Z,93.71
2019-03-13T14:24:18.444Z,93.65
2019-03-13T14:26:44.237Z,93.55
2019-03-13T14:29:10.048Z,93.62
2019-03-13T14:31:35.839Z,93.61
2019-03-13T14:34:01.637Z,94.00
2019-03-13T14:36:27.424Z,93.76
2019-03-13T14:38:53.208Z,93.87
2019-03-13T14:41:18.989Z,93.80
2019-03-13T14:43:44.811Z,93.81
2019-03-13T14:46:10.583Z,93.57
2019-03-13T14:48:36.362Z,93.54
2019-03-13T14:51:02.160Z,93.24
2019-03-13T14:53:27.952Z,93.46
2019-03-13T14:55:55.760Z,93.40
2019-03-13T14:58:21.438Z,93.80
2019-03-13T15:00:47.231Z,93.72
2019-03-13T15:03:13.009Z,93.42
2019-03-13T15:05:38.888Z,92.94
2019-03-13T15:08:04.694Z,93.29
2019-03-13T15:10:30.487Z,92.87
2019-03-13T15:12:56.273Z,92.81
2019-03-13T15:15:22.565Z,93.17
2019-03-13T15:17:48.349Z,92.77
2019-03-13T15:20:19.794Z,92.83
2019-03-13T15:22:45.584Z,92.77
2019-03-13T15:25:12.078Z,92.59
2019-03-13T15:27:37.866Z,92.80
2019-03-13T15:30:07.481Z,92.71
2019-03-13T15:32:33.320Z,92.99
2019-03-13T15:34:59.105Z,92.80
2019-03-13T15:37:24.885Z,92.96
2019-03-13T15:39:50.680Z,92.67
2019-03-13T15:42:16.462Z,92.70
2019-03-13T15:44:42.248Z,92.10
2019-03-13T15:47:08.043Z,91.87
2019-03-13T15:49:33.857Z,91.86
2019-03-13T15:51:59.656Z,92.25
2019-03-13T15:54:25.454Z,92.29
2019-03-13T15:56:51.232Z,92.19
2019-03-13T15:59:17.018Z,92.20
2019-03-13T16:01:42.817Z,92.17
2019-03-13T16:04:08.595Z,92.25
2019-03-13T16:06:34.409Z,92.38
2019-03-13T16:09:00.189Z,93.06
2019-03-13T16:11:25.998Z,93.46
2019-03-13T16:13:51.779Z,93.46
2019-03-13T16:16:17.567Z,93.46
2019-03-13T16:18:43.343Z,93.89
2019-03-13T16:21:09.156Z,93.89
2019-03-13T16:23:34.936Z,94.22
2019-03-13T16:26:00.743Z,94.25
2019-03-13T16:28:26.527Z,93.99
2019-03-13T16:30:54.224Z,94.14
2019-03-13T16:33:20.015Z,94.24
2019-03-13T16:35:45.904Z,94.44
2019-03-13T16:38:11.713Z,94.53
2019-03-13T16:40:37.499Z,94.74
2019-03-13T16:43:03.395Z,94.50
2019-03-13T16:45:29.184Z,94.79
2019-03-13T16:47:54.983Z,94.92
2019-03-13T16:50:28.615Z,94.86
2019-03-13T16:52:54.406Z,95.02
2019-03-13T16:55:20.284Z,94.97
2019-03-13T16:57:46.186Z,94.99
2019-03-13T17:00:15.072Z,94.92
2019-03-13T17:02:40.867Z,94.88
2019-03-13T17:05:09.456Z,95.06
2019-03-13T17:07:35.263Z,95.06
2019-03-13T17:10:01.131Z,95.05
2019-03-13T17:12:27.068Z,95.04
2019-03-13T17:14:52.867Z,95.13
2019-03-13T17:17:18.669Z,95.12
2019-03-13T17:19:44.564Z,95.21
2019-03-13T17:22:10.459Z,95.21
2019-03-13T17:24:36.243Z,95.20
2019-03-13T17:27:02.016Z,95.32
2019-03-13T17:29:27.809Z,95.44
2019-03-13T17:31:53.694Z,95.55
2019-03-13T17:34:19.493Z,95.66
2019-03-13T17:36:45.272Z,95.78
2019-03-13T17:39:11.057Z,95.91
2019-03-13T17:41:36.843Z,96.21
2019-03-13T17:44:02.648Z,96.32
2019-03-13T17:46:28.436Z,96.39
2019-03-13T17:48:54.233Z,96.36
2019-03-13T17:51:20.108Z,96.33
2019-03-13T17:53:45.907Z,96.52
2019-03-13T17:56:11.691Z,96.53
2019-03-13T17:58:37.493Z,96.78
2019-03-13T18:01:03.381Z,96.71
2019-03-13T18:03:29.289Z,96.82
2019-03-13T18:05:55.075Z,96.69
2019-03-13T18:08:20.884Z,96.87
2019-03-13T18:10:46.883Z,96.77
2019-03-13T18:13:12.685Z,96.95
2019-03-13T18:15:38.463Z,96.85
2019-03-13T18:18:04.262Z,96.88
2019-03-13T18:20:30.142Z,96.74
2019-03-13T18:22:55.932Z,96.69
2019-03-13T18:25:21.725Z,96.83
2019-03-13T18:27:47.520Z,96.86
2019-03-13T18:30:21.367Z,96.89
2019-03-13T18:32:47.153Z,96.97
2019-03-13T18:35:14.144Z,97.06
2019-03-13T18:37:39.933Z,97.28
2019-03-13T18:40:09.129Z,97.27
2019-03-13T18:42:34.918Z,97.57
2019-03-13T18:45:00.712Z,97.58
2019-03-13T18:47:26.499Z,97.35
2019-03-13T18:49:52.310Z,97.56
2019-03-13T18:52:18.082Z,97.46
2019-03-13T18:54:43.886Z,97.32
2019-03-13T18:57:09.666Z,97.27
2019-03-13T18:59:37.959Z,97.26
2019-03-13T19:02:03.158Z,97.03
2019-03-13T19:04:28.955Z,96.88
2019-03-13T19:06:54.755Z,96.74
2019-03-13T19:09:20.538Z,96.42
2019-03-13T19:11:46.333Z,96.28
2019-03-13T19:14:12.112Z,96.20
2019-03-13T19:16:38.020Z,96.08
2019-03-13T19:19:03.850Z,95.86
2019-03-13T19:21:29.679Z,96.45
2019-03-13T19:23:55.459Z,96.45
2019-03-13T19:26:21.255Z,96.39
2019-03-13T19:28:47.028Z,96.31
2019-03-13T19:31:12.833Z,96.32
2019-03-13T19:33:38.807Z,96.51
2019-03-13T19:36:05.297Z,96.75
2019-03-13T19:38:31.682Z,96.79
2019-03-13T19:40:57.857Z,96.78
2019-03-13T19:43:25.294Z,96.90
2019-03-13T19:45:51.244Z,96.92
2019-03-13T19:48:17.029Z,96.94
2019-03-13T19:50:42.816Z,97.07
2019-03-13T19:53:08.865Z,97.24
2019-03-13T19:55:35.161Z,97.32
2019-03-13T19:58:01.202Z,97.23
2019-03-13T20:00:27.866Z,97.16
2019-03-13T20:03:00.399Z,97.16
2019-03-13T20:05:26.041Z,97.16
2019-03-13T20:07:52.317Z,97.09
2019-03-13T20:10:27.021Z,97.14
2019-03-13T20:12:52.810Z,97.25
2019-03-13T20:15:29.094Z,97.24
2019-03-13T20:17:57.186Z,96.92
2019-03-13T20:20:26.090Z,96.95
2019-03-13T20:22:59.009Z,96.99
2019-03-13T20:25:25.325Z,97.01
2019-03-13T20:27:54.388Z,97.11
2019-03-13T20:30:20.512Z,97.11
2019-03-13T20:32:46.304Z,97.16
2019-03-13T20:35:12.288Z,97.15
2019-03-13T20:37:38.077Z,96.97
2019-03-13T20:40:07.447Z,97.04
2019-03-13T20:42:33.260Z,96.82
2019-03-13T20:44:59.048Z,96.66
2019-03-13T20:47:25.638Z,96.80
2019-03-13T20:49:51.412Z,96.75
2019-03-13T20:52:17.232Z,96.71
2019-03-13T20:54:43.000Z,96.45
2019-03-13T20:57:08.797Z,96.64
2019-03-13T20:59:34.590Z,96.64
2019-03-13T21:02:00.570Z,96.50
2019-03-13T21:04:26.371Z,96.59
2019-03-13T21:06:52.161Z,96.57
2019-03-13T21:09:17.962Z,96.59
2019-03-13T21:11:43.737Z,96.46
2019-03-13T21:14:09.549Z,96.08
2019-03-13T21:16:35.335Z,95.53
2019-03-13T21:19:01.128Z,94.89
2019-03-13T21:21:26.905Z,94.96
2019-03-13T21:23:52.717Z,95.23
2019-03-13T21:26:18.497Z,95.04
2019-03-13T21:28:44.296Z,95.34
2019-03-13T21:31:10.095Z,95.17
2019-03-13T21:33:35.881Z,94.79
2019-03-13T21:36:01.757Z,94.39
2019-03-13T21:38:27.561Z,94.16
2019-03-13T21:40:53.346Z,94.06
2019-03-13T21:43:22.161Z,94.11
2019-03-13T21:45:48.472Z,94.49
2019-03-13T21:48:17.760Z,94.63
2019-03-13T21:50:43.573Z,94.95
2019-03-13T21:53:09.351Z,94.75
2019-03-13T21:55:35.834Z,94.87
2019-03-13T21:58:04.560Z,94.90
2019-03-13T22:00:30.453Z,94.67
2019-03-13T22:02:56.232Z,94.61
2019-03-13T22:05:26.048Z,94.14
2019-03-13T22:07:49.949Z,93.83
2019-03-13T22:10:17.443Z,93.95
2019-03-13T22:12:43.200Z,94.13
2019-03-13T22:15:18.406Z,94.40
2019-03-13T22:17:46.336Z,94.44
2019-03-13T22:20:14.053Z,94.28
2019-03-13T22:22:39.834Z,94.39
2019-03-13T22:25:08.346Z,94.54
2019-03-13T22:27:34.132Z,94.41
2019-03-13T22:29:59.923Z,94.30
2019-03-13T22:32:25.706Z,94.05
2019-03-13T22:34:51.497Z,93.95
2019-03-13T22:37:17.285Z,94.18
2019-03-13T22:39:43.080Z,93.97
2019-03-13T22:42:08.860Z,93.84
2019-03-13T22:44:34.644Z,93.60
2019-03-13T22:47:00.441Z,93.48
2019-03-13T22:49:26.213Z,93.25
2019-03-13T22:51:52.020Z,93.22
2019-03-13T22:54:20.125Z,93.11
2019-03-13T22:56:45.596Z,92.88
2019-03-13T22:59:11.373Z,92.42
2019-03-13T23:01:37.868Z,92.65
2019-03-13T23:04:04.162Z,92.38
2019-03-13T23:06:30.071Z,92.01
2019-03-13T23:08:55.869Z,91.35
2019-03-13T23:11:21.664Z,90.88
2019-03-13T23:13:47.442Z,89.95
2019-03-13T23:16:13.232Z,89.14
2019-03-13T23:18:39.018Z,88.63
2019-03-13T23:21:04.809Z,89.46
2019-03-13T23:23:30.589Z,88.81
2019-03-13T23:25:56.406Z,88.13
2019-03-13T23:28:22.180Z,87.35
2019-03-13T23:30:47.974Z,87.33
2019-03-13T23:33:13.758Z,87.04
2019-03-13T23:35:39.538Z,87.13
2019-03-13T23:38:05.345Z,86.74
2019-03-13T23:40:31.134Z,86.68
2019-03-13T23:42:56.922Z,86.64
2019-03-13T23:45:22.704Z,86.23
2019-03-13T23:47:48.499Z,83.65
2019-03-13T23:50:14.283Z,84.07
2019-03-13T23:52:40.081Z,83.75
2019-03-13T23:55:06.262Z,84.70
2019-03-13T23:57:32.098Z,85.08
2019-03-13T23:59:57.839Z,85.49
